(content link) weather.gov    
NOAA link
National Weather Service
  NWS link
National Operational Hydrologic
Remote Sensing Center

Back to Snow Analyses Observation Search

Midwest Snow Depth Observations
from 2012-12-08 07:00 UTC to 2012-12-09 06:00 UTC

Note: these data are unofficial and provisional.
Latitude and longitude of observations will be included in text files after December 1, 2006.

Text file with Metric unitsText file with English unitsTable with Metric Units

Station IDDate (UTC)Value
(in)
Elevation
(feet)
Station Description
BKNW22012-12-08 122.0001407BUCKHANNON
MNOS22012-12-09 002.0001335MENNO,SD
8868A_MADIS2012-12-08 131.5001217SIOUX CITY 0.7 NW, IA
7227C_MADIS2012-12-08 141.4001135ELK POINT 5.6 NNE, SD
HRTN12012-12-08 131.0001371HARTINGTON,NE
ORCI42012-12-08 131.0001417ORANGE CITY
RMSI42012-12-08 161.0001332REMSEN NO. 2
SIXI42012-12-08 231.00013622MI.SE SIOUX CENTER,IA
SUX2012-12-08 121.0001079SIOUX GATEWAY AIRPORT
SXGI42012-12-08 121.0001089ANG BASE
VRMS22012-12-08 171.00011382MI.SE VERMILLION,SD
WLTN12012-12-08 131.0001220WALTHILL,NE
TT153_MADIS2012-12-09 060.700499MBOT
1743O_MADIS2012-12-08 130.300801DELMAR 2.3 NW, IA
8620A_MADIS2012-12-08 130.200715CALAMUS 2.0 NE, IA
6722C_MADIS2012-12-08 130.100827GALENA 5.7 E, IL
3265O_MADIS2012-12-08 130.001932DAVIS 0.5 N, IL
3266O_MADIS2012-12-08 130.001850WINSLOW 4.3 ESE, IL
5079C_MADIS2012-12-08 120.001866WINNEBAGO COUNTY, IL
5719C_MADIS2012-12-08 130.001833MACHESNEY PARK 3.1 ENE, IL
5868C_MADIS2012-12-08 130.001787CHADWICK 2.7 WSW, IL
6385C_MADIS2012-12-08 120.001797FREEPORT 2.0 NW, IL
7459B_MADIS2012-12-08 130.0011056HARVARD 2.8 SSE, IL
7897A_MADIS2012-12-08 130.001909CORTLAND 0.3 SSW, IL
7996A_MADIS2012-12-08 130.001922HUNTLEY 4.3 W, IL
8582A_MADIS2012-12-08 110.001863WATERLOO 3.0 NNW, IA
8624A_MADIS2012-12-08 130.0011503SCHLESWIG 0.4 NE, IA
8716A_MADIS2012-12-08 130.001860MARION 1.2 NE, IA
8798A_MADIS2012-12-08 130.001794PARK VIEW 0.2 WSW, IA
AFTW32012-12-08 130.001761ROCK RIVER
BLON12012-12-08 130.0011716BLOOMFIELD,NE
BNNW32012-12-08 130.001915BENTON
BROW32012-12-08 130.001787BRODHEAD,WI
CENS22012-12-08 140.00112806MI.SE CENTERVILLE,SD
CSAI42012-12-08 140.0011316EXPERIMENTAL FARM
DUBI42012-12-08 120.0011047DUBUQUE #3
EMMI42012-12-08 130.0011207EMMETSBURG,IA
FULI42012-12-08 140.001696N FK MAQUOKETA R
HSTI42012-12-08 150.0011427HOLSTEIN,IA
KENI42012-12-08 130.0011043KENNEBEC,IA
MKTI42012-12-08 130.0017452MI.W MAQUOKETA,IA
MONW32012-12-08 120.0019941MI.W MONROE,WI
NGLW32012-12-08 130.0011073NEW GLARUS
OZMN12012-12-08 140.0011699OSMOND NO.1
RKVI42012-12-08 130.0011237ROCK RIVER
RNDN12012-12-08 140.00118186MI.SSW RANDOLPH,NE
RSCI22012-12-08 120.001866ROSCOE
SHDI42012-12-08 130.0011417SHELDON,IA
SXRI42012-12-09 040.00113714MI.E SIOUX RAPIDS,IA
WAKN12012-12-08 130.0011404WAKEFIELD,NE
WYNN12012-12-08 130.0011440WAYNE,NE
YTNS22012-12-08 120.00111712MI.SE YANKTON,SD
0022B_MADIS2012-12-08 130.000545MORRIS 6.4 ESE, IL
0022O_MADIS2012-12-08 120.000666SKYLINE 7.1 W, AL
0348O_MADIS2012-12-08 130.000466HANSON 2.2 NE, KY
0349O_MADIS2012-12-08 120.000781ANCHORAGE 2.8 NE, KY
0351O_MADIS2012-12-08 170.000810GEORGETOWN 1.3 NNE, KY
0661S_MADIS2012-12-08 140.000722CHAMPAIGN 2.4 SSE, IL
1107B_MADIS2012-12-08 130.0001220MURRAY 0.5 N, IA
1377H_MADIS2012-12-08 120.000774HAMILTON 4.7 E, OH
1384H_MADIS2012-12-08 120.0001027SPRINGFIELD 1.1 NNW, OH
1397H_MADIS2012-12-08 120.0001007BUCYRUS 1.0 NW, OH
1407H_MADIS2012-12-08 120.000988BRADFORD 2.3 NW, OH
1443H_MADIS2012-12-08 120.000814WYOMING 1.2 NW, OH
1444H_MADIS2012-12-08 120.000863CHEVIOT 0.9 SSE, OH
1600B_MADIS2012-12-08 130.000568FAIRVIEW HEIGHTS 2.0 ENE, IL
1620H_MADIS2012-12-08 130.0001165HALL PARK 4.7 W, OK
1685H_MADIS2012-12-08 140.0001168EDMOND 1.6 W, OK
1740O_MADIS2012-12-08 160.000476JEFFERSONVILLE 1.6 ENE, IN
1784O_MADIS2012-12-08 130.000699PHILO 1.9 ENE, IL
1866O_MADIS2012-12-08 120.000794INDIANAPOLIS 6.5 W, IN
2003B_MADIS2012-12-08 130.0001417HALSTEAD 0.5 WNW, KS
2173S_MADIS2012-12-08 130.000994GLADSTONE 4.0 NNE, MO
2292O_MADIS2012-12-08 140.0001076OREGON 5.3 W, WI
2646H_MADIS2012-12-08 110.000827WESTMORELAND 5.4 NNE, TN
2681H_MADIS2012-12-08 140.000741SPRING HILL 2.2 N, TN
2688S_MADIS2012-12-08 130.000522ST. LOUIS 1.5 S, MO
2824O_MADIS2012-12-08 120.000814KOKOMO 7.2 WNW, IN
2877C_MADIS2012-12-08 120.000938LEBANON 4.5 NNE, IN
2884C_MADIS2012-12-08 110.000509HUNTINGBURG 0.4 SSW, IN
2895C_MADIS2012-12-08 140.000741PLAINFIELD 1.5 NW, IN
2910C_MADIS2012-12-09 050.000823CASTLETON 1.7 S, IN
2997C_MADIS2012-12-08 130.000958UNITY VILLAGE 2.6 ESE, MO
3005C_MADIS2012-12-08 130.0001043SHOAL CREEK ESTATES 0.2 SE, MO
3126O_MADIS2012-12-08 110.000459PLEASURE RIDGE PARK 0.6 NNW, KY
3200B_MADIS2012-12-08 130.000656PLAINFIELD 4.8 SW, IL
3262O_MADIS2012-12-08 120.000873LILY LAKE 2.1 E, IL
3344O_MADIS2012-12-08 120.000853GLENCOE 3.8 NNE, KY
3655C_MADIS2012-12-08 140.0001056STEELVILLE 5.6 SW, MO
3850O_MADIS2012-12-08 140.000614FLORENCE 2.2 N, AL
3958C_MADIS2012-12-08 130.0001401FORT LEONARD WOOD 10.1 S, MO
4061H_MADIS2012-12-08 120.000699HURRICANE 2.5 ENE, WV
4339O_MADIS2012-12-08 140.0001257LOGAN 1.5 NNW, IA
4374S_MADIS2012-12-08 130.000653ROGERSVILLE 0.5 NE, AL
4391S_MADIS2012-12-08 120.000686BROWNSBORO 2.3 NW, AL
4392S_MADIS2012-12-08 120.000614HAMPTON COVE 4.6 W, AL
4396S_MADIS2012-12-08 120.000764MADISON 1.7 N, AL
4401S_MADIS2012-12-08 120.000712MADISON 0.2 N, AL
4406S_MADIS2012-12-08 120.000774HARVEST 4.7 SSE, AL
4541B_MADIS2012-12-08 150.000833LAWRENCEBURG 0.5 S, KY
4575C_MADIS2012-12-08 130.000659HOMER 2.0 N, IL
4703C_MADIS2012-12-08 130.000577PERRYVILLE 1.1 NE, MO
4856C_MADIS2012-12-08 130.000719SUGAR GROVE 0.7 NE, IL
4984S_MADIS2012-12-08 130.000653TUSCOLA 0.5 WSW, IL
5200S_MADIS2012-12-08 130.000463BIRDSEYE 8.2 S, IN
5235S_MADIS2012-12-08 140.000883PEKIN 3.3 NNE, IN
5400S_MADIS2012-12-08 120.000486FOX CHASE 1.4 W, KY
5519C_MADIS2012-12-08 120.000784OWEN COUNTY, IN
5908S_MADIS2012-12-09 060.000758COLUMBIA 0.6 W, MO
6012A_MADIS2012-12-08 120.000719ATHENS 5.4 E, AL
6013A_MADIS2012-12-08 120.000843ARDMORE 4.5 S, AL
6018A_MADIS2012-12-08 120.000702ATHENS 2.9 E, AL
6026A_MADIS2012-12-08 120.000840CAPSHAW 2.8 NE, AL
6035A_MADIS2012-12-08 120.000771HAMPTON COVE 4.8 WSW, AL
6037A_MADIS2012-12-08 120.000709HAMPTON COVE 1.8 SW, AL
6043A_MADIS2012-12-08 120.000722CAPSHAW 4.7 E, AL
6185C_MADIS2012-12-08 130.000617LEBANON 3.7 WNW, TN
6359C_MADIS2012-12-08 090.000961JAMESTOWN 1.6 E, IN
6524S_MADIS2012-12-08 120.000653ROSEMOUNT 0.3 W, OH
6709B_MADIS2012-12-08 130.0001230PATASKALA 2.0 NE, OH
6989B_MADIS2012-12-08 120.000459BENTON 4.7 NNE, AR
7016S_MADIS2012-12-08 120.000925ARDMORE 1.3 NE, TN
7043S_MADIS2012-12-08 150.000528FINGER 4.1 ENE, TN
7057S_MADIS2012-12-08 130.000509LINDEN 7.9 NNW, TN
7250C_MADIS2012-12-08 130.000965MCDONALD COUNTY, MO
7438O_MADIS2012-12-08 130.000299MEMPHIS 5.5 ENE, TN
7474C_MADIS2012-12-08 130.000833GREENBRIER 1.4 N, TN
7501B_MADIS2012-12-08 140.0001401HALSTEAD 0.8 WNW, KS
7530B_MADIS2012-12-08 130.000564SHERMAN 0.1 W, IL
7556O_MADIS2012-12-09 030.000863AVON 0.8 NE, IN
7568C_MADIS2012-12-08 130.000581HERMITAGE 4.2 SE, TN
7654H_MADIS2012-12-08 120.000827TIFFIN 5.2 SE, OH
7791S_MADIS2012-12-08 130.000997WEATHERBY LAKE 0.8 NNW, MO
7850A_MADIS2012-12-08 130.000764CHAMPAIGN 2.3 NNW, IL
7859A_MADIS2012-12-08 130.000728CHAMPAIGN 1.5 WSW, IL
7945A_MADIS2012-12-08 120.000876ELBURN 0.4 NW, IL
7964O_MADIS2012-12-08 140.000873LAWRENCE 1.6 ESE, KS
7988A_MADIS2012-12-08 130.000574LINCOLN 4.6 W, IL
8113A_MADIS2012-12-08 120.000945WHITESTOWN 0.7 SSW, IN
8113O_MADIS2012-12-08 120.000958GRIMES 0.9 N, IA
8226S_MADIS2012-12-08 120.000787JACKSON 0.5 NE, KY
8248A_MADIS2012-12-08 110.000801HUNTINGTON 0.3 W, IN
8296O_MADIS2012-12-08 130.000758IRVINE 9.9 NNW, KY
8312H_MADIS2012-12-09 000.0001010WILMINGTON 3.6 W, OH
8349A_MADIS2012-12-08 120.000794SPEEDWAY 6.2 SSW, IN
8442O_MADIS2012-12-08 120.000938LEBANON 4.4 W, IN
8471O_MADIS2012-12-08 130.0001010PROTEM 3.0 NE, MO
8490A_MADIS2012-12-08 120.000686OTTERBEIN 2.3 SE, IN
8523O_MADIS2012-12-08 130.0001037LAWRENCE 1.3 NW, KS
8525A_MADIS2012-12-08 150.000456NEWBURGH 1.7 ENE, IN
8538S_MADIS2012-12-08 120.000886COLUMBUS 9.3 NNE, OH
8599A_MADIS2012-12-08 130.000876QUASQUETON 0.4 WSW, IA
8602S_MADIS2012-12-08 130.000623BONFIELD 4.0 WSW, IL
8631C_MADIS2012-12-08 120.000932DOVER 4.6 WNW, OH
8743A_MADIS2012-12-09 060.000889WINDSOR HEIGHTS 0.3 NNE, IA
8799A_MADIS2012-12-08 110.000653DAVENPORT 0.9 SSW, IA
8802A_MADIS2012-12-08 120.000604BETTENDORF 2.2 SE, IA
8844A_MADIS2012-12-08 140.000817HARTFORD 1.0 ENE, IA
8844O_MADIS2012-12-08 110.000876MOREHEAD 6.4 NE, KY
9018H_MADIS2012-12-09 060.000640KILLEN 4.6 E, AL
9212A_MADIS2012-12-08 130.0001421ESKRIDGE 0.1 SW, KS
9233A_MADIS2012-12-08 120.000899TALBERT 1.9 ESE, KY
9306A_MADIS2012-12-08 120.000535BOWLING GREEN 5.9 ESE, KY
9503O_MADIS2012-12-08 140.000594FLORENCE 4.7 NNW, AL
9687S_MADIS2012-12-08 130.000807FINDLAY 3.4 E, OH
9734O_MADIS2012-12-08 130.000814BRADFORD 0.4 E, IL
9769A_MADIS2012-12-08 150.000774COLUMBIA 0.9 SSE, MO
9941A_MADIS2012-12-08 130.0001227MILLER 6.2 WNW, MO
9978A_MADIS2012-12-08 130.0001227EDGAR SPRINGS 2.2 SSW, MO
9981A_MADIS2012-12-08 130.0001050ROLLA 3.6 E, MO
AGSI42012-12-08 220.000673AUGUSTA,IA
AGTK12012-12-08 120.0001263AUGUSTA,KS
AHLN12012-12-08 130.0001079SITE 2-3MI.NE
AKYI42012-12-08 130.0009353MI.S ANKENY,IA
ALAM72012-12-08 150.000932ALBANY
ALBI42012-12-08 130.0008103MI.NNE ALBIA,IA
ALCK22012-12-08 120.0001017PIPPA PASSES
ALEI22012-12-08 120.000702ALEDO,IL
ALFA42012-12-08 130.000712ALUM FORK
ALGI42012-12-08 120.00012203MI.W ALGONA,IA
ALO2012-12-09 000.000869WATERLOO MUNICIPAL AIRPORT
ALRI42012-12-08 130.0001106ALLERTON,IA
ALXI42012-12-09 000.000863WATERLOO SNOW
AMOI42012-12-08 130.000866ANAMOSA 3 SSW
ANAO22012-12-08 130.0001188ANADARKO,OK
AOAI22012-12-08 120.000771ALTONA
ARRI22012-12-08 130.000669WATER DEPT
ARTI22012-12-08 130.000669ARTHUR
ASHM62012-12-08 130.000607ASHLAND
ASNI42012-12-08 130.0001053ALLISON,IA
ATNI22012-12-08 130.000610ATHENS
AUBK12012-12-08 130.0001076AUBURN
AUBN12012-12-09 020.0001014AUBURN,NE
AUDI42012-12-08 140.0001293AUDUBON,IA
AUGA42012-12-08 130.000203AUGUSTA
AUGI22012-12-08 140.000666AUGUSTA,IL
AVNM72012-12-08 130.00014015MI.N AVA,MO
BBVK22012-12-08 120.000974WATERPLANT
BCAK22012-12-08 130.0001109BEATTYVILLE 4N
BDDP12012-12-08 120.000712BRADDOCK LOCK AND DAM
BDFI22012-12-08 120.000781BRADFORD 3SSE
BEAI22012-12-08 110.000427BEARDSTOWN
BELW32012-12-08 110.000810BELOIT
BETT12012-12-08 130.000584BETHPAGE 1S
BFDT12012-12-08 120.000571BERRY FIELD/PERCY PRIEST LK 1W
BFFM72012-12-08 130.00011064MI.NW WINDYVILLE,MO
BFRI32012-12-08 130.000574BEDFORD WASTEWATER TREATMENT PLANT
BHDO12012-12-08 120.000751WILLIAM HARSHA DAM
BKVI32012-12-08 120.000745LAKE
BKYA42012-12-08 130.000194BRINKLEY
BLDW32012-12-08 130.0001056BARNEVELD 1 S
BLFI32012-12-08 120.000856BLUFFTON 6N
BLLI42012-12-08 130.0008203MI.S BELLE PLAINE,IA
BLTW32012-12-08 130.000758BELOIT,WI
BMCI32012-12-09 050.000827CASTLETON 2S
BMGI22012-12-08 140.000781BLOOMINGTON WATERWORKS
BNRK12012-12-08 130.000860BONNER SPRINGS
BNTN12012-12-08 140.0001201BENNINGTON,NE
BNVW22012-12-08 120.0008562MI.ESE BURNSVILLE,WV
BOUI22012-12-08 130.0006733MI.NW BOURBONNAIS,IL
BRCM72012-12-08 140.000682BRUNSWICK
BRII42012-12-08 130.0006073MI.N BRIGHTON,IA
BRJM72012-12-08 130.000925BURLINGTON JUNCTION 1NW
BRKI22012-12-08 120.000338DAM 52
BRKM72012-12-08 130.000817BROOKFIELD
BRRK22012-12-08 130.000561BARREN RIVER LAKE
BSTO22012-12-08 130.000797BATTIEST
BTLI42012-12-08 140.0001243BATTLE CREEK 3NE
BTTI42012-12-08 130.0001201BRITT,IA
BUCK22012-12-08 120.000896BUCKHORN LAKE
BUFI22012-12-08 130.000610BUFFALO
BUNK22012-12-08 100.0001175BUNCH
BUTM72012-12-08 130.000810BUTLER 4W
BVDI22012-12-08 130.000791BELVIDERE,IL
BVOO22012-12-08 130.000715BARTLESVILLE 3
BWGK22012-12-08 120.000505BOWLING GREEN,KY
BWLI32012-12-08 120.000705BOWLING GREEN 3NE
BXTK22012-12-08 120.0001421CUMBERLAND RIVER
CAGI32012-12-08 120.000673CAGLES MILL DAM
CAGM72012-12-08 110.000446LOCK & DAM 25
CAMM72012-12-08 130.0001020CAMERON
CAMT12012-12-08 120.000387W.OF TENNESSEE RVR /KENTUCKY LAKE
CAOI22012-12-08 120.0003253MI.N CAIRO,IL
CASI22012-12-08 130.000620CASEY
CASI42012-12-08 130.000820CASCADE,IA
CCLO12012-12-08 120.000853CAESAR CREEK DAM
CCMM72012-12-08 120.0001007COLE CAMP 3NW
CCRK12012-12-08 130.0001207CLAY CENTER
CCVO12012-12-08 120.000673CIRCLEVILLE,OH
CDII22012-12-08 120.000571CHANNAHON,IL
CDIO12012-12-08 130.000794CAMBRIDGE
CENT12012-12-08 120.000768CENTERVILLE, 4NE
CFLK22012-12-08 120.000958CARR FORK LAKE
CGGI42012-12-08 120.000912BUFFALO CRK
CHET12012-12-08 120.000407CHEATHAM LOCK & DAM
CHLI32012-12-08 120.000640CECIL M. HARDEN LAKE
CHLM72012-12-08 140.000725CHILLICOTHE 2S
CHRI32012-12-08 110.000722CHALMERS 5W
CHRP12012-12-08 110.000755CHARLEROI
CHTI22012-12-08 130.000748CHATSWORTH,IL
CHVO12012-12-08 120.0008891MI.WSW CHEVIOT,OH
CISI22012-12-08 120.000692CISCO
CIYI42012-12-08 130.0001004CHARLES CITY
CJBO12012-12-08 120.000928CJ BROWN DAM
CLBI32012-12-08 120.000607COLUMBUS WASTEWATER TREATMENT PLANT
CLDI42012-12-08 140.0001024CLARINDA,IA
CLIW32012-12-08 140.0008662MI.NNW CLINTON,WI
CLKW22012-12-08 120.000965CLARKSBURG
CLNI42012-12-09 000.000594NO.1
CLNM72012-12-08 150.000781CLINTON
CLVI22012-12-08 140.000600CARLINVILLE,IL
CLYI22012-12-08 120.000459CLAY CITY 6SSE
CMH2012-12-09 000.000787PORT COLUMBUS INTL AIRPORT
CMLI32012-12-08 130.000741WHITE RIVER NORTH PURIFICATION PLANT
CMNA42012-12-08 130.000436CALAMINE
CMNO22012-12-08 140.0001070COMANCHE LAKE
CNRK22012-12-08 120.000610CORNERS
CNVK12012-12-08 130.000968CENTERVILLE 4 SW
CNYA42012-12-08 130.000322CONWAY
CNYO22012-12-08 140.00015913MI.NE COLONY,OK
COLK22012-12-08 150.0001237COLO
COU2012-12-09 000.000892COLUMBIA REGIONAL AIRPORT
CRDA42012-12-08 130.000180CLARENDON
CRFK22012-12-08 130.000531CROFTON 3 N
CRFN12012-12-08 140.0001677CROFTON,NE
CRLK22012-12-08 120.000843CAVE RUN LAKE
CRNM72012-12-08 130.00014144MI.N CRANE,MO
CRPI42012-12-08 230.000856NO. 1
CRSI22012-12-09 000.000702CHARLESTON
CRTI42012-12-08 130.00013022MI.SW CRESTON,IA
CRTT12012-12-08 130.000502CARTHAGE
CSYK22012-12-08 130.000702CRESSY
CTET12012-12-08 150.000741CHARLOTTE
CTHM72012-12-08 140.00010665MI.S CARTHAGE,MO
CTYI22012-12-08 120.000528COAL CITY
CVG2012-12-09 000.000830CINCINNATI/NORTHERN KY INTL
CWVI32012-12-08 120.000774CRAWFORDSVILLE 5S
CWWI22012-12-08 130.000643CITY WATER WORKS WITHIN
D0251_MADIS2012-12-08 120.000784DW0251 SPENCER
DAIO22012-12-08 130.000774DAISY
DANI32012-12-08 120.000948DANVILLE 3SW
DARW32012-12-08 130.000820DARLINGTON
DAY2012-12-09 000.0001001COX DAYTON INTERNATIONAL
DBQ2012-12-09 000.0001056DUBUQUE REGIONAL AIRPORT
DCRI32012-12-08 140.000784DECATUR 1N
DEKI22012-12-08 130.000873DE KALB,IL
DESA42012-12-08 130.000203DES ARC
DESK12012-12-08 140.000873DE SOTO
DEWI42012-12-08 130.000610WAPSIPINICON RIVER
DGVW32012-12-08 130.0001220DODGEVILLE
DLDI42012-12-08 120.000620MISSISSIPPI RIVER
DMSA42012-12-08 130.000702DAMASCUS
DMX2012-12-09 060.000942DES MOINES, IA
DNSI42012-12-08 130.0001371DENISON,IA
DNTK12012-12-08 150.000997DENTON
DONW32012-12-08 130.000981DARLINGTON 2 NE
DOWM72012-12-08 130.000879DOWNING
DRAP12012-12-08 130.000764DONORA
DSM2012-12-09 000.000817DES MOINES INTERNATIONAL
DSXI42012-12-09 060.000942DES MOINES SNOW
DUSO22012-12-08 140.000732DUSTIN
DVN2012-12-09 000.000745QUAD CITIES, IA
DVNI42012-12-09 060.000755DAVENPORT WFO
ECRI32012-12-08 110.000784EAGLE CREEK RESERVOIR
EFFK12012-12-08 130.0001112EFFINGHAM
EFHI22012-12-08 130.000597EFFINGHAM 3SW
EFMI22012-12-08 130.000538EFFINGHAM
EKRI42012-12-08 130.000794ELKADER 6SSW
ELAI32012-12-08 210.000482ELNORA
ELBI22012-12-08 120.000843ELBURN,IL
ELWI32012-12-08 120.000866ELWOOD
ELZK22012-12-09 050.000761WATER PLANT
EMSP12012-12-08 110.000702EMSWORTH DAM
ENDM62012-12-08 130.000272ENID DAM
ERVI22012-12-08 120.000689EARLVILLE
ESDM72012-12-08 130.0008666MI.W EDWARDS,MO
ETLM72012-12-08 130.000935ETHEL 2W
EXSM72012-12-08 130.000791EXCELSIOR SPRINGS
EZBI22012-12-08 120.0006995MI.S ELIZABETH,IL
EZLK22012-12-08 120.000948EZEL,KY
FARM72012-12-08 120.000945FARMINGTON,MO
FAVT12012-12-08 120.000846FAYETTEVILLE 8 WSW
FESM72012-12-08 120.0004722MI.NW FESTUS,MO
FLEK22012-12-08 090.000873FLEMINGSBURG,KY
FLOI32012-12-08 120.000719FLORA
FMBI32012-12-09 050.000558CHANNEL 2 TERRE HAUTE
FMTN12012-12-08 130.0001188FREMONT,NE
FRBI22012-12-08 130.000692WATERWORKS
FRFI42012-12-08 220.000764FAIRFIELD,IA
FRKI32012-12-09 050.000830FRANKFORT WASTEWATER TREATMENT PLANT
FRMI32012-12-08 130.000961DAVIS PURDUE AGRICULTURAL CENTER
FTMI42012-12-09 060.000518FORT MADISON,IA
FUTM62012-12-08 130.000318MANUAL PRECIP REPORT
FWA2012-12-09 000.000797FORT WAYNE INTERNATIONAL AIRPORT
FYTI42012-12-08 130.0001152FAYETTE
GCLI32012-12-08 120.000755FRANKLIN 2E
GCTI22012-12-08 120.000371OHIO RVR AT L&D 53
GEOI22012-12-08 130.0008402MI.SW GENOA,IL
GFOA42012-12-08 130.000528GREERS FERRY DAM
GIMK22012-12-08 130.0001102GIMLET
GLBA42012-12-08 130.000659GILBERT
GLDI22012-12-08 120.000541MISSISSIPPI RIVER
GLLM72012-12-08 150.000928GALLATIN 1W
GLNI42012-12-08 130.0001047GLENWOOD
GPBI22012-12-08 130.000751GALENA,IL
GRAN12012-12-08 130.00012304MI.E GRETNA,NE
GRBI32012-12-08 130.0009882MI.E GREENSBURG,IN
GRCI32012-12-08 120.0008041MI.E GREENCASTLE,IN
GRCM72012-12-08 130.0001030GREEN CITY
GRLK22012-12-08 120.000604GREEN RIVER LAKE
GRNK22012-12-08 120.000863GARRISON,KY
GTNT12012-12-08 120.000597GALLATIN 2E
GTTI42012-12-08 120.000630LOCK & DAM 10
GVLT12012-12-08 130.000607GLADEVILLE 3W
GWDP12012-12-08 120.000682DASHIELDS DAM
GYLP12012-12-08 180.000784GRAYS LANDING DAM
HAMW22012-12-08 100.000633HAMLIN,WV
HANO12012-12-08 120.000643HANNIBAL DAM
HAZK22012-12-08 120.0001207WATER PLANT
HDNO22012-12-08 130.000876HOLDENVILLE
HENO22012-12-08 140.000948HENNEPIN 5N
HERK12012-12-08 140.0001342HERINGTON,KS
HICM62012-12-08 130.000410HICKORY FLAT,MS
HIDI22012-12-09 000.000574HIDALGO 3SW
HILK22012-12-08 130.000784HILLSBORO
HILO12012-12-08 120.0001086HILLSBORO,OH
HLTK12012-12-08 140.0001056HOLTON
HNNO12012-12-08 170.000610HANNIBAL L/D
HNPI22012-12-08 230.000525HENNEPIN
HNTI32012-12-08 120.000725HUNTINGTON
HOLM62012-12-08 140.0004954MI.N HOLLY SPRINGS,MS
HOTA42012-12-08 140.000719HOT SPRINGS 1 NNE
HOWN12012-12-08 120.0001535HOWELLS,NE
HPTI42012-12-08 130.0001125HAMPTON,IA
HRDA42012-12-08 130.000705HARDY
HRFI42012-12-08 140.000764HARTFORD,IA
HRLI42012-12-08 130.0001220HARLAN,IA
HRRM72012-12-08 130.000906HARRISONVILLE
HRRW22012-12-08 130.000823HARRISVILLE
HRVM72012-12-08 130.000568HARVESTER,MO
HSPM72012-12-08 140.000869HAWN STATE PARK
HUNI32012-12-08 120.000807HUNTINGTON,IN
HUTI22012-12-08 130.000446HUTSONVILLE
HVAI22012-12-08 120.000463HAVANA
ICT2012-12-09 000.0001325WICHITA, KS
ICYK22012-12-08 130.000945BOONEVILLE 12SW
IDAI42012-12-08 130.000968INDIANOLA,IA
IDRA12012-12-08 130.0001542IDER
ILX2012-12-09 060.000584CENTRAL ILLINOIS, IL
IND2012-12-09 000.000778INDIANAPOLIS, IN
INEK22012-12-08 120.000961WATER PLANT
INXI32012-12-09 060.000797INDIANAPOLIS NWFO
ISBM72012-12-08 130.000984ISABELLA,MO
IWAI42012-12-08 130.0001135IOWA FALLS,IA
JACO12012-12-08 120.0007682MI.NW JACKSON,OH
JACW22012-12-08 120.000669STONEWALL JACKSON LAKE
JAXI22012-12-08 110.000610JACKSONVILLE
JCKI22012-12-08 130.000633JACKSONVILLE 2
JKL2012-12-09 060.0001362JACKSON, KY
JLN2012-12-09 000.000968JOPLIN REGIONAL AIRPORT
JMSI32012-12-08 090.000955JAMESTOWN,IN
JMTK22012-12-08 120.000886JAMESTOWN,KY
KEQI42012-12-08 130.000636KEOSAUQUA,IA
KEWI22012-12-08 130.0008041MI.E KEWANEE,IL
KGLM72012-12-08 130.000922KINGSVILLE
KNXI22012-12-08 130.000764KNOXVILLE
KRNM72012-12-08 140.000840KEARNEY 3E
LACM72012-12-08 140.000958LANCASTER 2SE
LBNI22012-12-08 130.000505LEBANON,IL
LDNK22012-12-08 120.0001289STATE POLICE
LEBI32012-12-08 120.000928LEBANON,IN
LEBK12012-12-08 130.0001175LEBO,KS
LEXT12012-12-08 120.000479LEXINGTON,TN
LGNW22012-12-08 140.000689LOGAN,WV
LIMO12012-12-08 120.000843LIMA
LKWM72012-12-08 130.0001102LOCKWOOD,MO
LMK2012-12-09 060.000636LOUISVILLE, KY
LNGA42012-12-08 140.000778LANGLEY
LNK2012-12-09 000.0001175LINCOLN MUNICIPAL AIRPORT
LNKI22012-12-08 140.000860LANARK,IL
LONW22012-12-08 120.000712LOCKS
LSIM72012-12-08 130.000997LEES SUMMIT 3E
LSSM72012-12-08 110.0001014LEE'S SUMMIT 2SE
LSX2012-12-09 060.000604ST LOUIS, MO
LSXI42012-12-08 130.0001020LITTLE SIOUX,IA
LWDI42012-12-09 060.000738LOWDEN,IA
LWVI22012-12-08 120.000466LAWRENCEVILLE
LYON12012-12-08 140.0001273LYONS,NE
LZK2012-12-08 130.000554LITTLE ROCK, AR
MACI22012-12-08 130.000702MACKINAW
MAFA12012-12-09 060.000768MADISON 2 N
MARI32012-12-08 120.000587MARTINSVILLE,IN
MBOK22012-12-08 120.0001368MIDDLESBORO 4W
MCCA42012-12-08 130.000213MCCRORY,AR
MCI2012-12-09 000.000997KANSAS CITY INTL AIRPORT
MCLI42012-12-08 140.000820MAQUOKETA RVR
MCTI42012-12-09 000.000548MUSCATINE,IA
MCWI42012-12-08 130.0001129WINNEBAGO RIVER
MDBW22012-12-08 120.000945MIDDLEBOURNE,WV
MDCM72012-12-08 140.000968MOUND CITY 5S
MDLI32012-12-08 120.0009322MI.W MIDDLETOWN,IN
MDTI22012-12-08 130.000725MENDOTA 2SE
MEDI22012-12-08 130.000610MEDORA,IL
MEDN12012-12-08 120.0001152AGRONOMY LABRATORY
MEG2012-12-09 000.000322MEMPHIS, TN
MENA42012-12-08 130.0001125MENA
MFDI22012-12-08 140.0006695MI.NW MILFORD,IL
MGYP12012-12-08 120.000682MONTGOMERY DAM
MHRI42012-12-08 130.000932NO.2
MHTK12012-12-08 130.0001070MANHATTAN
MLFK12012-12-08 140.0001093MILFORD LAKE-REPUBLICAN RIVER
MLI2012-12-09 000.000577QUAD CITY INTL
MLNM72012-12-08 130.000860MILAN
MLWO22012-12-08 130.00012531MI.WSW MARLOW,OK
MMOI22012-12-08 120.000472MARSEILLES LOCK AND DAM
MMPM72012-12-08 120.000771MEMPHIS,MO
MNBW22012-12-08 130.00019391MI.SE MT NEBO,WV
MNCM72012-12-08 140.000738MONROE CITY,MO
MONI32012-12-08 120.000666MONROE LAKE
MOOI22012-12-08 140.000705MATTOON
MOSI22012-12-08 140.0005251MI.NW MORRIS,IL
MOUA42012-12-08 140.000676MOUNT IDA 5 SE
MPTI42012-12-08 130.0001158NO.2
MQBI22012-12-08 130.000702MACOMB,IL
MRBM72012-12-08 130.000433MARBLE HILL,MO
MRBW32012-12-08 130.0001017MT HOREB
MRPW32012-12-08 130.0001047MINERAL POINT-NORTHEAST
MRTI22012-12-08 130.000702MORTON
MRVK12012-12-08 140.0001175MARYSVILLE
MRYK22012-12-09 060.000531MURRAY,KY
MSCI42012-12-09 050.0001132MASON CITY #1
MSHI22012-12-08 120.000577MARTINSVILLE 10S
MSSI32012-12-08 120.000748MISSISSINEWA LAKE DAM AT PEORIA
MSTI32012-12-08 120.000837MORRISTOWN,IN
MTAI42012-12-08 130.00011455MI.SW MOUNT AYR,IA
MTCI22012-12-08 170.000768MOUNT CARROLL,IL
MTCK22012-12-08 120.00010103MI.NE MONTICELLO,KY
MTET12012-12-08 140.0001834MONTEAGLE
MTLI32012-12-08 120.0006792MI.E MITCHELL,IN
MTPI22012-12-08 120.000666MOUNT PULASKI
MTSK22012-12-08 120.0001010MOUNT STERLING,KY
MTVA42012-12-08 140.000715MOUNTAIN VIEW
MTVI32012-12-08 120.000384MOUNT VERNON,IN
MTVK22012-12-08 130.0001306CUMBERLAND #2
MUNI32012-12-08 120.000965MUNCIE WATERWORKS
MUTO22012-12-08 130.0001877AG STATION
MVNI22012-12-08 130.0005123MI.NE MOUNT VERNON,IL
MYVM72012-12-08 170.000991MARYVILLE
MZOI22012-12-08 140.000600MAZON
MZZI32012-12-08 120.000791MARION 2N
NAHI22012-12-08 130.000407NEW ATHENS,IL
NCKN12012-12-08 130.0001348NICKERSON 3NE
NCUW22012-12-08 110.000659NEW CUMBERLAND DAM
NCWI32012-12-08 120.0001043NEW CASTLE,IN
NENI42012-12-08 130.000778NORTH ENGLISH,IA
NEVO12012-12-08 120.0008461MI.W NELSONVILLE,OH
NEWO12012-12-08 130.000804NEWPORT,OH
NHPI42012-12-08 140.0001155NEW HAMPTON
NHUI42012-12-08 130.0001066NASHUA 2SW
NIAM72012-12-08 130.0001404NIANGUA,MO
NMKA12012-12-08 130.000820NEW MARKET
NMNO22012-12-09 060.0001148NORMAN
NOGO12012-12-08 120.0001247UNKNOWN
NOLK22012-12-08 120.000571NOLIN RIVER LAKE
NOVI32012-12-08 120.0007552MI.NE NORTH VERNON,IN
NPRA42012-12-08 140.000233NEWPORT,AR
NRLI22012-12-08 110.000787NORMAL
NSHI22012-12-08 140.0004864MI.NE NASHVILLE,IL
NSHI32012-12-08 110.0006962MI.NNE NASHVILLE,IN
NSHM72012-12-08 130.00010995MI.W NEOSHO,MO
NTNI22012-12-09 060.000525NEWTON
NWKI22012-12-08 120.0007452MI.SSE NEWARK,IL
OAKI42012-12-08 130.00011552MI.E OAKLAND,IA
OAX2012-12-09 000.0001161OMAHA, NE
OAXN12012-12-09 060.0001155VALLEY 1WNW
OCAW22012-12-08 120.0001243LOCATED NEXT TO LAUREL RIVER
OFF2012-12-09 000.000984OFFUTT AFB
OFK2012-12-09 000.0001529KARL STEFAN MEMORIAL AIRPORT
OFLM72012-12-08 130.0005912MI.SSW O'FALLON,MO
OGDI22012-12-08 120.000676OGDEN
OHIT12012-12-08 120.000449OLD HICKORY DAM TAILWATER
OHX2012-12-09 000.000604OLD HICKORY WFO
OLNI42012-12-08 120.0001155OELWEIN 1E
OLYI22012-12-08 120.000456OLNEY
OMA2012-12-09 000.000974EPPLEY AIRFIELD
OPDI32012-12-08 130.000709O'NEAL PURDUE FARM
OPSK12012-12-08 130.0001060OVERLAND PARK S OF 87TH
OSAK12012-12-08 130.000899OSAWATOMIE
OSEI42012-12-08 130.00011323MI.WSW OSCEOLA,IA
OSGK12012-12-08 130.0001086OSAGE CITY,KS
OTCI32012-12-08 120.000640PURDUE EXPERIMENT FARM
OTTI22012-12-08 140.0005744MI.SW OTTAWA,IL
OXRA12012-12-08 130.000581OWENS CROSS ROADS 3S
PALK12012-12-08 140.0001027PAOLA 10W
PAWI22012-12-08 130.0009251MI.E PAW PAW,IL
PAWN12012-12-08 140.0001168PAWNEE CITY,NE
PBGI32012-12-08 130.000679BROOKLYN 1 NE
PBZP12012-12-08 120.0001165MOON TOWNSHIP
PCCO22012-12-08 130.000994PARKS DEPARTMENT
PCHA42012-12-08 130.000328SITE 1
PDCW32012-12-08 130.000653PRAIRIE DU CHIEN
PDHK22012-12-09 060.000387WEST PADUCAH 2W
PDNK22012-12-08 120.000420PROVIDENCE,KY
PEAI42012-12-08 130.0007784MI.N PELLA,IA
PELK22012-12-08 120.000771PRESTONSBURG 3WSW
PEYI22012-12-08 150.0006406MI.NW PERRY,IL
PLHM72012-12-09 060.0001014PLEASANT HILL WFO
PNAI22012-12-08 130.000650PANA
PNCI32012-12-08 120.000705PENCE,IN
PNTI22012-12-08 130.000650VERMILLON R AT
PNVK22012-12-08 120.000627DRAINAGE BASIN-BIG SANDY #1
POLM72012-12-08 130.0001007POLO
PONO22012-12-08 130.0001063PONTOTOC 1N
PORT12012-12-08 120.000538PORT ROYAL
PPBM72012-12-08 130.000400BLACK RVR
PRII22012-12-08 130.000725PRINCEVILLE
PRLI32012-12-08 120.000545PATOKA RIVER LAKE
PROM72012-12-08 130.000827PROTEM 4 NE
PRRM72012-12-08 130.000486WATER PLANT
PRTM72012-12-08 140.000938PRINCETON
PRWI22012-12-08 140.000725PEORIA 5NW
PTSK12012-12-08 120.000896PITTSBURG,KS
PULT12012-12-08 120.000666PULASKI WASTEWATER PLANT
PWWI22012-12-08 120.000643PARIS SEWAGE PLANT
PXNI22012-12-08 140.000751PAXTON 2WSW
PYVI32012-12-08 140.0006144MI.WNW PERRYSVILLE,IN
RAMI22012-12-08 130.000604RAMSEY,IL
RATM72012-12-08 130.000958NO.2
RCFI22012-12-08 130.000663ROCK FALLS,IL
RCHI22012-12-08 120.000787ROCHELLE,IL
RCMM72012-12-08 130.000728RICHMOND 3S
RDGI32012-12-08 120.0001033RIDGEVILLE 3SSE
RIPI22012-12-08 120.000561LA MOINE R NR
RKWI42012-12-08 130.0001198ROCKWELL CITY,IA
RLXW22012-12-08 120.000945RLX WEATHER SERVICE FORECAST OFFICE
ROFI22012-12-08 130.000784ROCKFORD,IL
ROGK22012-12-08 110.0001250ROGERS
ROSM72012-12-08 130.0001089ROSENDALE 3WSW
RRLK22012-12-08 120.000502ROUGH RIVER LAKE
RSHI32012-12-08 120.000971RUSHVILLE,IN
RUSA12012-12-08 120.000837RUSSELLVILLE NUMBER 2
RWYM72012-12-08 130.0001040RIDGEWAY
SAAI22012-12-08 130.000686ST ANNE
SACI42012-12-08 130.0001201SAC CITY,IA
SAMT12012-12-08 140.000335WILDLIFE REFUGE
SARM72012-12-08 130.00011551MI.W SARCOXIE,MO
SBTN12012-12-08 130.0001079SHUBERT 2SW
SBYM72012-12-08 150.000702SALISBURY
SCKI22012-12-08 130.000906ST. CHARLES
SCTA12012-12-08 130.000597SCOTTSBORO
SCTK22012-12-08 110.0007873MI.SSW SCOTTSVILLE,KY
SD012_MADIS2012-12-09 060.0001106WEST SIDE OF I29
SD028_MADIS2012-12-09 060.0001325EAST SIDE OF ND I29 - TOP OF SL
SDHK22012-12-08 130.000827SANDY HOOK 1 NE
SEWN12012-12-08 130.0001447SITE 1
SFDI22012-12-08 120.000581SPRINGFIELD 3N
SGF2012-12-09 000.0001283SPRINGFIELD, MO
SGHO12012-12-08 120.0001027SPRINGFIELD 2
SGTA42012-12-08 130.000223STUTTGART
SHBI32012-12-08 130.000758SEWAGE PLANT
SHNI22012-12-08 130.000361OLD SHAWNEETOWN,IL
SHRI22012-12-08 130.000571SHERMAN
SIDI22012-12-08 130.0006795MI.NW SIDELL,IL
SILI22012-12-08 130.000646SULLIVAN
SKLK22012-12-08 120.0001270SKYLINE,KY
SKSM72012-12-08 130.000308POWER STATION
SLAI32012-12-08 120.000833SALAMONIE LAKE DAM
SLAK22012-12-08 120.000958DRAINAGE BASIN-KENTUCKY #4
SLBM72012-12-08 120.000764SHELBINA,MO
SLHI42012-12-08 130.000650SALEM 1 S
SLMN12012-12-08 130.0001043SALEM 5SW
SLOI22012-12-08 130.000535SALEM,IL
SMIK22012-12-08 130.0001050SMILAX
SMIT12012-12-08 120.0001053SMITHVILLE 2SE
SNYI42012-12-08 140.0001125STANLEY IA
SOYW32012-12-08 130.000883SOUTH WAYNE
SPAT12012-12-08 140.000965SPARTA
SPEM72012-12-08 120.000505ST LOUIS,MO
SPET12012-12-08 130.000909SPENCER 5NE
SPFM72012-12-09 060.0001283SPRINGFIELD WFO
SPKM72012-12-08 130.000879SPICKARD 7W
SPNI32012-12-08 120.000548WHITE RIVER
SPTI42012-12-08 130.0001211STRAWBERRY POINT
SPTK22012-12-09 060.000417SPOTTSVILLE LOCK AND DAM
SRCA42012-12-08 130.000295SEARCY,AR
SSCM72012-12-08 160.000564SCIENCE CENTER
SSTK22012-12-08 120.0001030AG STATION
STAI22012-12-08 130.0006232MI.ENE STREATOR,IL
STAK22012-12-08 130.000735STANTON 2W
STAW22012-12-08 130.000663SAINT ALBANS
STCM72012-12-08 140.000453MISSOURI RIVER
STEO22012-12-08 140.0001217STELLA
STJ2012-12-08 140.000830ST JOSEPH 4 WNW
STJW22012-12-08 120.0001066STONEWALL JACKSON DAM
STL2012-12-09 000.000522LAMBERT-ST LOUIS INTL ARPT
STMT12012-12-08 140.000331GERMANTOWN
STOA42012-12-08 140.000197OBSERVER
STOI22012-12-09 030.0009741MI.N STOCKTON,IL
STON12012-12-08 130.0001578STANTON 7NE
STPO12012-12-08 120.0001194SAINT PARIS,OH
STRK22012-12-08 110.00012732MI.S STEARNS,KY
STWI22012-12-08 130.000823STEWARD
SVRM72012-12-08 120.000669LOCK AND DAM 22-MISSISSIPPI RIVER
SYCN12012-12-08 110.0001024SYRACUSE,NE
TAKM72012-12-08 120.000991TARKIO #2
TALK22012-12-09 050.000899TALBERT 2ESE
TCMN12012-12-08 140.0001145TECUMSEH,NE
TEKN12012-12-08 130.0001175TEKAMAH,NE
TFOK12012-12-09 060.000892TOPEKA - NWS
TGLW22012-12-08 120.00012302MI.S GRAFTON,WV
THOT12012-12-08 140.000748THOMPSONS STATION, TN
THTI32012-12-08 130.0005418MI.S TERRE HAUTE,IN
TLDI42012-12-08 130.000889TOLEDO,IA
TOP2012-12-09 000.000902TOPEKA, KS
TOUI22012-12-08 120.000732TOULON
TRMI22012-12-09 000.000469TRIMBLE 1E
TRPI42012-12-08 130.0001063TRIPOLI,IA
TULT12012-12-09 050.0001060WATER PLANT
TUSI22012-12-08 130.000653TUSCOLA
TVLK22012-12-08 120.000636TAYLORSVILLE LAKE
TYGW22012-12-08 120.000978DAM
UCTM72012-12-08 130.000535UNIVERSITY CITY
UIHM72012-12-08 130.000787URICH 2SW
UMCM72012-12-08 130.000774SANBORN FIELD
UNDI42012-12-08 130.0001083UNDERWOOD
UNVM72012-12-08 130.0001053UNIONVILLE
URBI22012-12-08 140.000725URBANA
VALM72012-12-08 130.000719VALLEY CITY
VBRM72012-12-08 130.0001296VIBURNUM,MO
VLYK12012-12-08 130.0001066VALLEY FALLS 3 SW
VNDM72012-12-08 130.000745VANDALIA,MO
VNWO12012-12-08 150.000791UNKNOWN
VOLI42012-12-08 120.000837VOLGA 1NE
VREI22012-12-08 130.000620VIRGINIA
VRGN12012-12-08 130.0001424VIRGINIA 4SSE
WABM72012-12-08 130.0001421WASHBURN 5 W
WAMK12012-12-08 130.0001115WAMEGO
WASI32012-12-08 230.000489WASHINGTON
WAVO12012-12-08 130.0005641MI.SSE WAVERLY,OH
WCHT12012-12-09 060.000925WINCHESTER 1 E
WEAO22012-12-08 150.0001637WEATHERFORD
WEBI42012-12-08 130.0001076WEBSTER CITY,IA
WEBT12012-12-08 130.000928WINCHESTER BYO
WEEW22012-12-08 110.000630PIKE ISLAND DAM.
WELK22012-12-08 130.0001168WELLINGTON
WESN12012-12-08 120.0001355WESTON 3NW
WFRM72012-12-08 130.000961WINONA 3 SW
WFRO12012-12-08 120.000709WEST FORK LAKE
WGCI42012-12-08 130.000948WAVELAND
WHBK22012-12-08 120.00012962MI.SE WHITESBURG,KY
WHLI22012-12-08 130.0005611MI.E WHITE HALL,IL
WILW22012-12-08 120.000669WILLIAMSON
WISI22012-12-08 120.000686WINDSOR
WLBI42012-12-08 130.000764WILLIAMSBURG,IA
WLFI32012-12-08 130.000719HG EXPL FARM
WLLI32012-12-08 120.000495WILLIAMS DAM
WLMI32012-12-08 120.000551WILLIAMS
WMTI42012-12-08 150.000971FORT DODGE,IA
WMTO12012-12-08 120.0009682MI.NNW WILMINGTON,OH
WPTN12012-12-08 140.0001299WEST POINT,NE
WRRM72012-12-08 130.000804WARRENSBURG 4NW
WRVO12012-12-08 220.0008101MI.W WESTERVILE,OH
WSGP12012-12-08 120.0001302WASHINGTON
WSHI42012-12-08 130.000751WASHINGTON,IA
WSLK22012-12-08 120.000810WEST LIBERTY 3NW
WWPK22012-12-08 120.0001509WILLIAMSBURG 1NW
WYNP12012-12-08 120.000945WAYNESBURG
YOKI22012-12-08 130.000725YORKVILLE
ZALM72012-12-08 140.0003544MI.E ZALMA,MO
Data last summarized at December 12 2012 03:02:55 UTC.


NOHRSC
Mission Statement  |  Contact


National Weather Service
National Operational Hydrologic Remote Sensing Center
Office of Water Prediction
1735 Lake Drive W.
Chanhassen, MN 55317

NOHRSC homepage
Contact NOHRSC
Glossary
Credits
Information Quality
Page last modified: Jan 28, 2016
About Us
Disclaimer
Privacy Policy
FOIA
Career Opportunities